Tiempo atmosférico en la estación meteorológica de Cáceres, Cáceres (405 m.)



Fecha
DESCASC
Temp. máxima en grados centígrados (hora)
DESCASC
Temp. mínima en grados centígrados (hora)
DESCASC
Temp. media en grados centígrados
DESCASC
Racha de viento máxima en m/sg (hora)
DESCASC
Velocidad máxima media en intervalos de 10 minutos(hora)
DESCASC
Precipitaciones diarias en mm
DESCASC
Precipitaciones de 00:00 a 06:00 en mm
DESCASC
Precipitaciones de 06:00 a 12:00 en mm
DESCASC
Precipitaciones de 12:00 a 18:00 en mm
DESCASC
Precipitaciones de 18:00 a 24:00 en mm
DESCASC
05-04-2020 20.1 (16:20) 11.5 (08:20) 15.8 12.22 (18:10) 7.22 (20:40) 2.4 0 0 0 2.4
04-04-2020 18.3 (16:30) 9 (05:20) 13.6 12.22 (14:10) 7.78 (13:50) 0 0 0 0 0
03-04-2020 19.1 (18:30) 5.7 (07:00) 12.4 6.67 (16:20) 4.17 (16:20) 0 0 0 0 0
02-04-2020 17.6 (18:00) 6.9 (00:00) 12.3 9.17 (18:30) 5.28 (18:30) 0.4 0.2 0.2 0 0
01-04-2020 13.7 (17:20) 2.7 (00:00) 8.2 10 (18:00) 6.67 (00:10) 0 0 0 0 0
31-03-2020 13.1 (18:20) 4.1 (00:00) 8.6 10 (02:20) 6.67 (02:00) 7.2 1.2 3.2 2.8 0
30-03-2020 12.9 (00:00) 5 (00:00) 8.9 10.56 (23:50) 6.39 (23:50) 4.2 0 0 2.2 2
29-03-2020 18.1 (17:10) 4.7 (00:00) 11.4 5.28 (18:50) 3.89 (18:40) 0 0 0 0 0
28-03-2020 16.9 (16:30) 3.9 (00:00) 10.4 8.89 (12:50) 6.11 (12:50) 0 0 0 0 0
27-03-2020 14.1 (14:30) 4.1 (00:00) 9.1 10.56 (14:50) 5.83 (16:10) 0 0 0 0 0
26-03-2020 19.4 (17:10) 10.2 (00:00) 14.8 10.83 (21:20) 6.94 (21:50) 0 0 0 0 0
25-03-2020 19.5 (17:20) 7.5 (00:00) 13.5 11.11 (22:40) 6.11 (22:40) 0 0 0 0 0
24-03-2020 17 (16:00) 9 (00:00) 13 15 (10:50) 8.33 (12:20) 0 0 0 0 0
23-03-2020 16.7 (15:30) 7.4 (00:00) 12.1 10 (13:20) 5.83 (16:40) 0.2 0.2 0 0 0
22-03-2020 16.2 (17:20) 6.2 (07:10) 11.2 11.39 (19:30) 6.11 (19:30) 1 0 0 0 1
21-03-2020 14.2 (16:40) 7.7 (00:00) 10.9 7.78 (08:20) 5 (08:20) 22.6 19.6 1.8 0 1.2
20-03-2020 13.2 (15:30) 9.5 (00:00) 11.3 10 (23:40) 5.83 (23:40) 22 0.2 7.2 2.4 12.2
19-03-2020 19.2 (15:50) 7.9 (00:00) 13.6 8.06 (14:10) 4.72 (14:30) 0 0 0 0 0
18-03-2020 19.2 (14:30) 9.6 (00:00) 14.4 10.83 (10:30) 6.67 (10:20) -- 0 0 -- 0
17-03-2020 17.5 (16:50) 3.5 (00:00) 10.5 11.39 (09:50) 6.94 (13:00) 0 0 0 0 0
16-03-2020 9.5 (13:30) 4.1 (00:00) 6.8 17.22 (14:20) 8.89 (14:30) 1.2 0 0 0.6 0.6
15-03-2020 21.1 (14:10) 7.2 (00:00) 14.2 16.11 (14:40) 7.5 (15:50) 0 0 0 0 0
14-03-2020 22.1 (17:20) 8.9 (00:00) 15.5 4.72 (00:20) 2.78 (20:40) 0 0 0 0 0
13-03-2020 20.7 (16:20) 10.5 (08:00) 15.6 7.78 (02:00) 5.56 (02:00) 0 0 0 0 0
12-03-2020 24.8 (14:10) 11 (00:00) 17.9 7.78 (20:40) 5.56 (20:20) 0 0 0 0 0
11-03-2020 24.6 (15:10) 9.3 (00:00) 17 3.89 (23:00) 3.33 (23:10) 0 0 0 0 0
10-03-2020 24 (17:40) 7.7 (00:00) 15.8 6.11 (16:40) 2.78 (16:40) 0 0 0 0 0
09-03-2020 19.4 (17:20) 6.6 (00:00) 13 9.72 (15:20) 6.39 (15:20) 0 0 0 0 0

Gráficas

Temp. máximas Temp. mínimas Temp. medias Precipitaciones Rachas de viento máximas Velocidades máximas media en intervalos de 10 minutos

Datos horarios

Fecha y hora oficial Temperatura (ºC) Velocidad del viento (km/h) Dirección del viento Racha (km/h) Dirección de racha Precipitación (mm) Presión (hPa) Tendencia (hPa) Humedad (%)
2020-04-07 23:00:00 14.2 12 Sur 13 Sur 0 977 0.9 96
2020-04-07 22:00:00 14.2 4 Sudoeste 12 Sur 0 976.6 0.7 92
2020-04-07 21:00:00 16 9 Sur 15 Sur 0 976 -0.1 87
2020-04-07 20:00:00 19.1 6 Sur 14 Sur 0 976.1 -0.1 71
2020-04-07 19:00:00 19.1 8 Sudoeste 18 Oeste 0 975.9 -0.8 73
2020-04-07 18:00:00 19 6 Sudoeste 17 Sur 0 976.1 -0.9 78
2020-04-07 17:00:00 17.9 11 Sur 20 Sudoeste 0 976.2 -0.7 86
2020-04-07 16:00:00 16.3 15 Sur 23 Sudoeste 0.2 976.7 -0.2 91
2020-04-07 15:00:00 15.9 15 Sur 27 Sur 0.8 977 0.1 93
2020-04-07 14:00:00 17.1 8 Sudoeste 21 Sudoeste 0.4 976.9 0.5 84
2020-04-07 13:00:00 17.6 17 Sur 29 Sur 0 976.9 1 80
2020-04-07 12:00:00 16.2 22 Sur 32 Sur 0 976.9 1.4 88
2020-04-07 11:00:00 15 16 Sur 26 Sur 0 976.4 1.2 94
2020-04-07 10:00:00 13.8 15 Sudeste 26 Sudeste 0.2 975.9 0.8 98
2020-04-07 09:00:00 13.7 19 Sudeste 33 Sudeste 1.4 975.5 0.5 98
2020-04-07 08:00:00 13.7 15 Sudeste 24 Sudeste 3.2 975.2 -0.2 98
2020-04-07 07:00:00 13.2 5 Este 13 Este 1.8 975.1 -0.4 100
2020-04-07 06:00:00 13.3 8 Este 16 Este 3 975 -0.4 100
2020-04-07 05:00:00 13.4 5 Norte 12 Este 0.4 975.4 0 99
2020-04-07 04:00:00 13.6 9 Sudeste 21 Sudeste 0.4 975.5 0.1 96
2020-04-07 03:00:00 13.8 18 Sudeste 23 Sur 0.2 975.4 -0.2 97
2020-04-07 02:00:00 13.6 17 Sur 28 Sur 0 975.4 -0.4 95
2020-04-07 01:00:00 13.5 18 Sur 30 Sur 0.8 975.4 0.2 95
2020-04-07 00:00:00 13.4 18 Sudeste 28 Sudeste 3.2 975.6 0.5 96
2020-04-06 23:00:00 13.6 0 Calma 12 Sur 2.4 975.8 1.3 99
2020-04-06 22:00:00 13.7 8 Sudeste 13 Sudeste 3.2 975.2 0.9 96
2020-04-06 21:00:00 14.2 0 Calma 9 Sudeste 2 975.1 0.6 98
2020-04-06 20:00:00 14.6 4 Este 8 Este 0.4 974.5 -0.2 95
2020-04-06 19:00:00 14.7 3 Este 10 Sur 3.2 974.3 -0.4 94
2020-04-06 18:00:00 14.9 4 Noroeste 14 Oeste 2.2 974.5 -0.3 93
2020-04-06 17:00:00 17.4 6 Sur 24 Sudoeste 0.2 974.7 -0.3 71
2020-04-06 16:00:00 18.3 13 Sur 24 Sur 0 974.7 -0.4 66
2020-04-06 15:00:00 18.3 15 Sur 26 Sur 0 974.8 -0.3 65
2020-04-06 14:00:00 17.2 8 Sudoeste 15 Sur 0 975 0.4 74
2020-04-06 13:00:00 16.7 8 Sur 19 Sudoeste 0 975.1 1.2 76
2020-04-06 12:00:00 15.2 10 Sudoeste 22 Oeste 0 975.1 1.8 81
2020-04-06 11:00:00 14.6 7 Sudoeste 19 Sur 0 974.6 1.9 84
2020-04-06 10:00:00 15.2 8 Sur 14 Sur 0 973.9 1.9 80
2020-04-06 09:00:00 12.6 10 Sudoeste 15 Sudoeste 0 973.3 1.6 92
2020-04-06 08:00:00 12.2 8 Sudoeste 19 Sudoeste 0 972.7 1.2 94
2020-04-06 07:00:00 12.4 11 Sudoeste 31 Sudoeste 0 972 0.8 94
2020-04-06 06:00:00 12.4 13 Sudoeste 32 Sudoeste 0 971.7 0.5 95
2020-04-06 05:00:00 12.5 14 Sudoeste 30 Sudoeste 0 971.5 0.1 94
2020-04-06 04:00:00 13.1 12 Sudoeste 30 Sudoeste 0 971.2 0.2 93
2020-04-06 03:00:00 14.1 9 Sudoeste 23 Oeste 0 971.2 0.2 93
2020-04-06 02:00:00 14.5 10 Oeste 24 Oeste 0 971.4 1.1 95
2020-04-06 01:00:00 14.4 10 Sur 35 Sur 1 971 1.3 95
2020-04-06 00:00:00 14.4 18 Sur 35 Sur 0.4 971 1.6 94
2020-04-05 23:00:00 14.6 22 Sur 38 Sur 0.4 970.3 1.5 91
2020-04-05 22:00:00 14.8 21 Sur 37 Sur 0 969.7 1 91
2020-04-05 21:00:00 14.8 23 Sur 43 Sur 1 969.4 1 91
2020-04-05 20:00:00 14.9 17 Sur 37 Sudoeste 0.6 968.8 0.1 90
2020-04-05 19:00:00 17.3 21 Sudoeste 44 Sur 0 968.7 -0.3 71
2020-04-05 18:00:00 18.6 20 Sur 38 Sur 0 968.4 -1 63
2020-04-05 17:00:00 19 24 Sur 36 Sur 0 968.7 -0.9 63
2020-04-05 16:00:00 18.9 17 Sur 39 Sur 0 969 -1 61
2020-04-05 15:00:00 18.7 23 Sur 42 Sur 0 969.4 -0.8 60
2020-04-05 14:00:00 19 21 Sur 42 Sudeste 0 969.6 -0.6 58
2020-04-05 13:00:00 17.2 25 Sudeste 39 Sur 0 970 0 62
2020-04-05 12:00:00 15.8 24 Sudeste 39 Sur 0 970.2 0.3 66
2020-04-05 11:00:00 15.1 19 Sudeste 36 Sudeste 0 970.2 1 66
2020-04-05 10:00:00 12.9 19 Sudeste 30 Sudeste 0 970 1 73
2020-04-05 09:00:00 11.7 22 Sudeste 30 Sudeste 0 969.9 1.6 74
2020-04-05 08:00:00 11.6 16 Sudeste 31 Sur 0 969.2 0.7 72
2020-04-05 07:00:00 11.8 17 Sudeste 29 Sudeste 0 969 0.2 74
2020-04-05 06:00:00 11.8 16 Sur 30 Sudeste 0 968.3 -0.7 74
2020-04-05 05:00:00 12.8 20 Sudeste 27 Sudeste 0 968.5 -0.5 72
2020-04-05 04:00:00 12.3 14 Sudeste 25 Sudeste 0 968.8 -0.3 77
2020-04-05 03:00:00 12.4 18 Sudeste 24 Sudeste 0 969 0 76
2020-04-05 02:00:00 11.7 13 Sudeste 21 Sudeste 0 969 0 79
2020-04-05 01:00:00 12.7 15 Sudeste 19 Sudeste 0 969.1 0.6 75
2020-04-05 00:00:00 13 14 Sudeste 19 Sudeste 0 969 1.1 74
2020-04-04 23:00:00 13.2 16 Sur 19 Sur 0 969 1.4 73
2020-04-04 22:00:00 14 11 Sudeste 15 Sudeste 0 968.5 1.4 65
2020-04-04 21:00:00 14.9 10 Sur 21 Sur 0 967.9 0.9 58
2020-04-04 20:00:00 15.6 16 Sur 32 Sur 0 967.6 0.7 57
2020-04-04 19:00:00 17.1 19 Sur 33 Sur 0 967.1 -0.1 45
2020-04-04 18:00:00 17.5 19 Sur 34 Sur 0 967 -0.4 46
2020-04-04 17:00:00 17.9 21 Sudeste 34 Sur 0 966.9 -0.6 44
2020-04-04 16:00:00 17.8 14 Sur 32 Sudeste 0 967.2 -0.7 49
2020-04-04 15:00:00 16.5 23 Sudeste 44 Sudeste 0 967.4 -0.7 53
2020-04-04 14:00:00 17.4 23 Sudeste 41 Sudeste 0 967.5 -0.4 48
2020-04-04 13:00:00 16.6 20 Sudeste 39 Sudeste 0 967.9 0.3 54
2020-04-04 12:00:00 15.7 20 Sudeste 33 Sudeste 0 968.1 0.5 62
2020-04-04 11:00:00 15 22 Sudeste 32 Sudeste 0 967.9 0.5 62
2020-04-04 10:00:00 13.8 21 Sudeste 30 Sudeste 0 967.6 0.4 64
2020-04-04 09:00:00 12.4 15 Sudeste 25 Sudeste 0 967.6 0.5 67
2020-04-04 08:00:00 11.2 16 Sur 24 Sudeste 0 967.4 0.1 69
2020-04-04 07:00:00 11.3 19 Sur 30 Sudeste 0 967.2 -0.6 73
2020-04-04 06:00:00 10.3 12 Sur 24 Sur 0 967.1 -1.1 80
2020-04-04 05:00:00 9.1 2 Sudoeste 6 Norte 0 967.3 -1.3 81
2020-04-04 04:00:00 11.3 5 Sudeste 19 Sudeste 0 967.8 -1 69
2020-04-04 03:00:00 9.6 0 Calma 11 Sudeste 0 968.2 -0.7 79
2020-04-04 02:00:00 11.7 6 Sudeste 14 Sudeste 0 968.6 -0.3 65
2020-04-04 01:00:00 11.9 6 Sudeste 12 Sur 0 968.8 0.1 62
2020-04-04 00:00:00 10.9 4 Este 11 Sur 0 968.9 0.4 69
2020-04-03 23:00:00 12.5 5 Sudeste 13 Sudeste 0 968.9 0.5 61
2020-04-03 22:00:00 13.7 9 Sur 14 Sudeste 0 968.7 0.4 56
2020-04-03 21:00:00 14.5 9 Sur 12 Sudeste 0 968.5 0.2 56
2020-04-03 20:00:00 18.1 7 Sudeste 15 Sudeste 0 968.4 -0.2 50
2020-04-03 19:00:00 18.9 12 Este 18 Este 0 968.3 -0.7 48
2020-04-03 18:00:00 17.5 12 Este 22 Este 0 968.3 -1.5 52
2020-04-03 17:00:00 18.2 14 Este 24 Este 0 968.6 -1.7 47
2020-04-03 16:00:00 18.5 9 Este 23 Este 0 969 -1.8 50
2020-04-03 15:00:00 17.6 8 Este 22 Este 0 969.8 -1.2 50
2020-04-03 14:00:00 16.8 14 Este 24 Este 0 970.3 -0.6 54
2020-04-03 13:00:00 17 12 Este 21 Este 0 970.8 0.2 53
2020-04-03 12:00:00 15 6 Este 12 Este 0 971 0.6 66
2020-04-03 11:00:00 12.7 7 Este 11 Nordeste 0 970.9 1.3 72
2020-04-03 10:00:00 11.6 8 Este 13 Sudeste 0 970.6 1.3 76
2020-04-03 09:00:00 8.7 3 Este 10 Sur 0 970.4 1.2 87
2020-04-03 08:00:00 6.9 8 Sur 9 Sur 0 969.6 0.3 93
2020-04-03 07:00:00 5.9 4 Sudoeste 6 Sudoeste 0 969.3 0.1 97
2020-04-03 06:00:00 6.6 4 Sudoeste 5 Sudoeste 0 969.2 -0.4 93
2020-04-03 05:00:00 7.3 3 Sudoeste 6 Sudoeste 0 969.3 -0.3 92
2020-04-03 04:00:00 7.4 3 Sur 5 Sudoeste 0 969.2 -0.3 91
2020-04-03 03:00:00 8 4 Sudoeste 8 Sudoeste 0 969.6 0.4 87
2020-04-03 02:00:00 9 5 Sudoeste 8 Oeste 0 969.6 0.6 83
2020-04-03 01:00:00 9.9 5 Oeste 13 Noroeste 0 969.5 1.1 76
2020-04-03 00:00:00 11.3 5 Oeste 17 Noroeste 0 969.2 1.5 71
2020-04-02 23:00:00 12.9 10 Noroeste 18 Noroeste 0 969 1.5 63
2020-04-02 22:00:00 13.7 10 Noroeste 21 Oeste 0 968.4 1.1 61
2020-04-02 21:00:00 13.5 14 Sudoeste 21 Oeste 0 967.7 0.8 64
2020-04-02 20:00:00 16.2 11 Oeste 22 Noroeste 0 967.5 0.6 53
2020-04-02 19:00:00 15.8 14 Noroeste 33 Noroeste 0 967.3 0.3 56
2020-04-02 18:00:00 17.3 13 Noroeste 27 Noroeste 0 966.9 -0.4 48
2020-04-02 17:00:00 17.2 14 Noroeste 26 Noroeste 0 966.9 -0.3 48
2020-04-02 16:00:00 16.5 13 Noroeste 22 Norte 0 967 -0.3 49
2020-04-02 15:00:00 15.6 10 Noroeste 21 Oeste 0 967.3 -0.1 53
2020-04-02 14:00:00 15 4 Nordeste 14 Norte 0 967.2 0.1 63
2020-04-02 13:00:00 14 3 Sudoeste 12 Este 0 967.3 1.3 70
2020-04-02 12:00:00 12.4 5 Este 11 Noroeste 0 967.4 1.7 75
2020-04-02 11:00:00 10.4 3 Nordeste 11 Noroeste 0 967.1 2 78
2020-04-02 10:00:00 8.3 5 Noroeste 10 Noroeste 0 966 1 92
2020-04-02 09:00:00 6.9 4 Norte 7 Norte 0 965.7 0.8 99
2020-04-02 08:00:00 7.1 3 Nordeste 9 Norte 0.2 965.1 0.3 98
2020-04-02 07:00:00 7.3 5 Nordeste 8 Nordeste 0 965 0 96
2020-04-02 06:00:00 7.2 4 Sudoeste 8 Sudoeste 0.2 964.9 -0.3 96
2020-04-02 05:00:00 7 0 Calma 9 Norte 0 964.8 -0.7 96
2020-04-02 04:00:00 7 4 Norte 10 Nordeste 0 965 -1 94
2020-04-02 03:00:00 7.4 4 Noroeste 7 Noroeste 0 965.2 -0.7 92
2020-04-02 02:00:00 7.3 4 Oeste 9 Noroeste 0 965.5 -0.3 93
2020-04-02 01:00:00 8 8 Noroeste 17 Sur 0 966 0.7 91
2020-04-02 00:00:00 9.7 12 Sudeste 17 Sur 0 965.9 1 78
2020-04-01 23:00:00 9.6 13 Sudeste 23 Sudeste 0 965.8 0.7 77
2020-04-01 22:00:00 9.3 16 Sudeste 22 Sudeste 0 965.3 0.2 76
2020-04-01 21:00:00 8.8 11 Sudeste 17 Sudeste 0 964.9 -0.5 75
2020-04-01 20:00:00 11.1 11 Sudeste 23 Sudeste 0 965.1 0 67
2020-04-01 19:00:00 12.1 13 Sudeste 32 Sur 0 965.1 -0.6 65
2020-04-01 18:00:00 11.8 21 Sur 36 Sur 0 965.4 -0.8 67
2020-04-01 17:00:00 13.3 13 Sur 30 Sudeste 0 965.1 -1.4 55
2020-04-01 16:00:00 12.8 11 Sur 30 Sur 0 965.7 -0.9 60
2020-04-01 15:00:00 12.3 14 Sur 29 Sur 0 966.2 -0.7 57
2020-04-01 14:00:00 12.4 12 Sur 22 Sudoeste 0 966.5 0 52
2020-04-01 13:00:00 11.6 10 Sudoeste 24 Sudoeste 0 966.6 0.3 63
2020-04-01 12:00:00 11 9 Sur 20 Sur 0 966.9 1.1 61
2020-04-01 11:00:00 9.3 10 Sur 18 Sur 0 966.5 1.1 74
2020-04-01 10:00:00 7.1 14 Sur 21 Sur 0 966.3 1.6 86
2020-04-01 09:00:00 5.5 16 Sur 21 Sur 0 965.8 1.3 96
2020-04-01 08:00:00 3.3 0 Calma 7 Noroeste 0 965.4 0.9 99
2020-04-01 07:00:00 3 3 Sudoeste 5 Sudoeste 0 964.7 0.2 98
2020-04-01 06:00:00 3 3 Sudoeste 6 Sudoeste 0 964.5 -0.3 97
2020-04-01 05:00:00 4 5 Sudoeste 7 Sudoeste 0 964.5 -0.1 95
2020-04-01 04:00:00 4.9 5 Sudoeste 8 Sur 0 964.5 0.4 94
2020-04-01 03:00:00 5.5 5 Sudeste 12 Oeste 0 964.8 1.3 91
2020-04-01 02:00:00 6 6 Oeste 18 Sudoeste 0 964.6 1.6 87
2020-04-01 01:00:00 6.4 15 Sudoeste 32 Sudoeste 0 964.1 2 86
2020-04-01 00:00:00 7 23 Sudoeste 34 Sudoeste 0 963.5 2.8 87
2020-03-31 23:00:00 8 14 Sudoeste 31 Sudoeste 0 963 3.2 91
2020-03-31 22:00:00 9.6 15 Sudoeste 24 Sudoeste 0 962.1 3.1 88
2020-03-31 21:00:00 10.7 6 Sur 23 Oeste 0 960.7 2.4 85
2020-03-31 20:00:00 11.9 9 Sudoeste 29 Oeste 0 959.8 1.7 83
2020-03-31 19:00:00 12.5 4 Oeste 20 Sudoeste 0 959 1 78
2020-03-31 18:00:00 12.1 4 Sudoeste 15 Oeste 0 958.3 0.1 86
2020-03-31 17:00:00 10.9 5 Norte 18 Nordeste 1.6 958.1 -0.3 93
2020-03-31 16:00:00 11.4 5 Nordeste 10 Nordeste 0.2 958 -0.3 94
2020-03-31 15:00:00 10 3 Norte 15 Este 1 958.2 -0.1 96
2020-03-31 14:00:00 9 9 Este 19 Este 0 958.4 0.5 94
2020-03-31 13:00:00 8.1 14 Este 21 Este 0 958.3 0.4 97
2020-03-31 12:00:00 6.6 14 Este 22 Este 0.2 958.3 0.4 97
2020-03-31 11:00:00 5.8 14 Este 21 Este 0.4 957.9 0.3 97
2020-03-31 10:00:00 4.7 12 Este 23 Este 0.6 957.9 0.1 98
2020-03-31 09:00:00 4.5 12 Este 24 Este 0.4 957.9 -0.2 98
2020-03-31 08:00:00 4.2 15 Este 26 Este 0.8 957.6 -1.1 98
2020-03-31 07:00:00 4.2 15 Este 28 Este 0.8 957.8 -1.4 97
2020-03-31 06:00:00 4.3 12 Este 26 Este 1.2 958.1 -2 95
2020-03-31 05:00:00 4.8 17 Este 33 Este 0 958.7 -2.5 90
2020-03-31 04:00:00 5 22 Este 33 Este 0 959.2 -2.6 88
2020-03-31 03:00:00 5 19 Este 36 Este 0 960.1 -2.5 88
2020-03-31 02:00:00 5 24 Este 34 Este 0 961.2 -1.6 90
2020-03-31 01:00:00 4.9 22 Este 35 Este 0 961.8 -1.5 94
2020-03-31 00:00:00 5 17 Este 38 Este 0.4 962.6 -0.4 96
2020-03-30 23:00:00 5.1 14 Este 27 Este 0.6 962.8 0 96
2020-03-30 22:00:00 5.9 13 Nordeste 20 Nordeste 0.8 963.3 0.1 93
2020-03-30 21:00:00 7 10 Nordeste 23 Este 0 963 -0.3 92
2020-03-30 20:00:00 7.5 12 Nordeste 23 Nordeste 0.2 962.8 -1 94
2020-03-30 19:00:00 8.5 12 Nordeste 22 Nordeste 0 963.2 -1 89
2020-03-30 18:00:00 10.1 11 Nordeste 22 Nordeste 1 963.3 -1.8 83
2020-03-30 17:00:00 10.6 5 Noroeste 20 Norte 0.2 963.8 -2.1 82
2020-03-30 16:00:00 11.3 11 Noroeste 23 Noroeste 0 964.2 -1.8 78
2020-03-30 15:00:00 12.3 7 Noroeste 16 Noroeste 0.2 965.1 -1.4 77
2020-03-30 14:00:00 12 5 Sur 10 Norte 0.8 965.9 -1 83
2020-03-30 13:00:00 12.2 6 Norte 12 Nordeste 0 966 -0.6 73
2020-03-30 12:00:00 11.7 5 Noroeste 10 Norte 0 966.5 -0.1 73
2020-03-30 11:00:00 10.8 6 Norte 12 Norte 0 966.9 0.3 72
2020-03-30 10:00:00 10.3 5 Norte 9 Nordeste 0 966.6 0.3 74
2020-03-30 09:00:00 8.6 3 Sudoeste 6 Sudoeste 0 966.6 0 90
2020-03-30 08:00:00 8.9 4 Oeste 9 Oeste 0 966.6 -0.8 84
2020-03-30 07:00:00 9.2 6 Sudoeste 18 Norte 0 966.3 -1.7 82
2020-03-30 06:00:00 11.2 8 Oeste 23 Sudoeste 0 966.6 -1.9 71
2020-03-30 05:00:00 11 16 Sudoeste 26 Sudoeste 0 967.4 -1.6 75
2020-03-30 04:00:00 11.5 9 Oeste 25 Sudoeste 0 968 -1.2 72
2020-03-30 03:00:00 12 17 Sudoeste 23 Oeste 0 968.5 -1.3 70
2020-03-30 02:00:00 12.6 15 Sudoeste 22 Sudoeste 0 969 -0.9 67
2020-03-30 01:00:00 12.8 13 Sudoeste 18 Sudoeste 0 969.2 -0.8 66
2020-03-30 00:00:00 12.9 14 Sudoeste 17 Sudoeste 0 969.8 0.1 65
2020-03-29 23:00:00 14 11 Sudoeste 18 Sudoeste 0 969.9 0.1 61
2020-03-29 22:00:00 12 10 Sudoeste 13 Sudoeste 0 970 0 70
2020-03-29 21:00:00 13.1 8 Sudoeste 9 Sudoeste 0 969.7 -0.5 69
2020-03-29 20:00:00 16.1 4 Oeste 14 Sudoeste 0 969.8 -0.7 52
2020-03-29 19:00:00 17 9 Oeste 19 Sudoeste 0 970 -1.1 49
2020-03-29 18:00:00 17.4 6 Sudoeste 15 Noroeste 0 970.2 -1.6 48
2020-03-29 17:00:00 17.8 6 Nordeste 17 Noroeste 0 970.5 -1.7 42
2020-03-29 16:00:00 17.2 6 Norte 10 Norte 0 971.1 -1.5 45
2020-03-29 15:00:00 17.1 4 Norte 13 Este 0 971.8 -1.1 42
2020-03-29 14:00:00 16.5 7 Este 10 Este 0 972.2 -0.8 46
2020-03-29 13:00:00 16.9 5 Nordeste 10 Este 0 972.6 -0.2 51
2020-03-29 12:00:00 15.4 5 Este 9 Este 0 972.9 0.1 52
2020-03-29 11:00:00 12.8 5 Este 8 Este 0 973 0.5 62
2020-03-29 10:00:00 9.7 3 Este 7 Sudeste 0 972.8 0.6 78
2020-03-29 09:00:00 6.1 4 Sudeste 5 Este 0 972.8 0.8 87
2020-03-29 08:00:00 4.9 4 Sudoeste 7 Sudoeste 0 972.5 0.3 89
2020-03-29 07:00:00 5 4 Oeste 10 Noroeste 0 972.2 -0.3 87
2020-03-29 06:00:00 7.9 4 Oeste 11 Sudoeste 0 972 -0.8 68
2020-03-29 05:00:00 7.8 3 Sur 9 Sudeste 0 972.2 -0.6 71
2020-03-29 03:00:00 7.6 3 Sur 8 Sudoeste 0 972.8 0 80
2020-03-29 01:00:00 7.8 6 Sudoeste 8 Sudoeste 0 972.8 0.2 79
2020-03-29 00:00:00 8.9 6 Sudoeste 9 Sudoeste 0 972.8 0.8 74
2020-03-28 23:00:00 8.5 8 Sudoeste 9 Sudoeste 0 972.8 1.4 76
2020-03-28 22:00:00 9.3 4 Sudoeste 7 Sudoeste 0 972.6 1.7 71
2020-03-28 21:00:00 10.4 2 Oeste 4 Sudoeste 0 972 1.5 68
2020-03-28 20:00:00 12.4 6 Sur 10 Sur 0 971.4 1 63
2020-03-28 19:00:00 15.1 9 Sur 18 Sudeste 0 970.9 0.3 50
2020-03-28 18:00:00 16.6 10 Sudeste 19 Sudeste 0 970.5 -0.3 46
2020-03-28 17:00:00 16.5 10 Sudeste 25 Sur 0 970.4 -0.7 47
2020-03-28 16:00:00 15.8 15 Sudeste 27 Sudeste 0 970.6 -0.8 47
2020-03-28 15:00:00 15.8 16 Sudeste 28 Sudeste 0 970.8 -0.8 49
2020-03-28 14:00:00 15.6 15 Sudeste 31 Sudeste 0 971.1 -0.5 49
2020-03-28 13:00:00 14.4 20 Sudeste 32 Sudeste 0 971.4 0.1 55
2020-03-28 12:00:00 12.3 13 Este 23 Sudeste 0 971.6 0.8 62
2020-03-28 11:00:00 11.2 11 Sudeste 21 Sudeste 0 971.6 1.4 67
2020-03-28 10:00:00 8.8 10 Sudeste 18 Este 0 971.3 1.5 75
2020-03-28 09:00:00 6.7 9 Sudeste 17 Este 0 970.8 1.5 83
2020-03-28 08:00:00 5.5 11 Este 19 Sudeste 0 970.2 1.1 86
2020-03-28 07:00:00 4 4 Sudeste 14 Sudeste 0 969.8 0.6 90
2020-03-28 06:00:00 4.6 9 Sudeste 17 Sudeste 0 969.3 0.1 88
2020-03-28 05:00:00 4.3 8 Sudeste 12 Este 0 969.1 -0.2 88
2020-03-28 04:00:00 4.8 8 Sudeste 13 Sudeste 0 969.2 0.1 85
2020-03-28 03:00:00 5.3 8 Sudeste 12 Sudeste 0 969.2 0.2 82
2020-03-28 02:00:00 5.8 8 Sudeste 11 Sudeste 0 969.3 0.7 80
2020-03-28 01:00:00 6.2 8 Sudeste 14 Sudeste 0 969.1 1.1 77
2020-03-28 00:00:00 6.7 10 Sudeste 14 Sudeste 0 969 1.7 75
2020-03-27 23:00:00 7.2 10 Sudeste 15 Sudeste 0 968.6 2.1 73
2020-03-27 22:00:00 8.1 12 Sudeste 19 Sur 0 968 2.1 66
2020-03-27 21:00:00 8.4 11 Sudeste 17 Sudeste 0 967.3 1.9 66
2020-03-27 20:00:00 9.5 8 Este 23 Este 0 966.5 1.6 65
2020-03-27 19:00:00 12.1 16 Este 32 Este 0 965.9 1.1 49
2020-03-27 18:00:00 13 17 Nordeste 35 Este 0 965.4 0.7 47
2020-03-27 17:00:00 13.7 18 Nordeste 35 Este 0 964.9 0.1 44
2020-03-27 16:00:00 13.8 20 Nordeste 37 Este 0 964.8 0.2 43
2020-03-27 15:00:00 13.7 21 Nordeste 38 Nordeste 0 964.7 0.2 47
2020-03-27 14:00:00 13.2 19 Este 33 Este 0 964.8 0.5 51
2020-03-27 13:00:00 13.4 14 Nordeste 34 Nordeste 0 964.6 0.7 50
2020-03-27 12:00:00 12.7 15 Este 27 Este 0 964.5 1.2 51
2020-03-27 11:00:00 11.1 13 Este 22 Este 0 964.3 1.4 62
2020-03-27 10:00:00 9 15 Este 25 Este 0 963.9 1.7 74
2020-03-27 09:00:00 7.8 10 Este 17 Este 0 963.3 1.2 67
2020-03-27 08:00:00 5.4 4 Nordeste 9 Norte 0 962.9 1.2 76
2020-03-27 07:00:00 4.1 0 Calma 4 Sudoeste 0 962.2 0.4 85
2020-03-27 06:00:00 5.1 2 Oeste 6 Noroeste 0 962.1 -0.3 87
2020-03-27 05:00:00 6.6 6 Norte 11 Noroeste 0 961.7 -1.1 80
2020-03-27 04:00:00 8.1 6 Noroeste 14 Oeste 0 961.8 -1 75
2020-03-27 03:00:00 8.3 7 Oeste 20 Sudoeste 0 962.4 -0.5 80
2020-03-27 02:00:00 8.6 13 Oeste 25 Sudoeste 0 962.8 -0.1 80
2020-03-27 01:00:00 9.8 15 Sudoeste 23 Oeste 0 962.8 -0.2 75
2020-03-27 00:00:00 10.8 12 Oeste 29 Sudoeste 0 962.9 0 71
2020-03-26 23:00:00 10.9 22 Sudoeste 37 Oeste 0 962.9 0.4 74
2020-03-26 22:00:00 11.8 24 Sudoeste 39 Oeste 0 963 0.7 72
2020-03-26 21:00:00 13.2 23 Sudoeste 36 Oeste 0 962.9 0.7 66
2020-03-26 20:00:00 15.1 18 Oeste 35 Oeste 0 962.5 -0.1 59
2020-03-26 19:00:00 17.4 18 Oeste 34 Oeste 0 962.3 -0.9 51
2020-03-26 18:00:00 18.7 18 Noroeste 34 Noroeste 0 962.2 -1.4 32
2020-03-26 17:00:00 19.3 17 Oeste 33 Noroeste 0 962.6 -1.8 40
2020-03-26 16:00:00 18.9 18 Noroeste 35 Noroeste 0 963.2 -1.7 33
2020-03-26 15:00:00 18.1 18 Oeste 38 Noroeste 0 963.6 -1.9 42
2020-03-26 14:00:00 17.5 17 Noroeste 34 Noroeste 0 964.4 -1.4 41
2020-03-26 13:00:00 16.6 15 Oeste 31 Norte 0 964.9 -1.1 40
2020-03-26 12:00:00 15.9 15 Noroeste 29 Noroeste 0 965.5 -0.6 43
2020-03-26 11:00:00 14.8 13 Noroeste 26 Noroeste 0 965.8 -0.1 55
2020-03-26 10:00:00 13.6 13 Noroeste 25 Noroeste 0 966 0.4 62
2020-03-26 09:00:00 12.4 8 Noroeste 20 Noroeste 0 966.1 0.6 64
2020-03-26 08:00:00 11.3 11 Oeste 18 Noroeste 0 965.9 0.2 68
2020-03-26 07:00:00 10.7 8 Oeste 16 Noroeste 0 965.6 -0.6 71
2020-03-26 06:00:00 11 7 Oeste 17 Noroeste 0 965.5 -1.2 69
2020-03-26 05:00:00 11.7 9 Noroeste 21 Oeste 0 965.7 -1.4 67
2020-03-26 04:00:00 12.2 12 Oeste 22 Oeste 0 966.2 -1.1 66
2020-03-26 03:00:00 12.3 13 Oeste 30 Oeste 0 966.7 -0.8 69
2020-03-26 02:00:00 12.8 18 Oeste 32 Oeste 0 967.1 -0.6 69
2020-03-26 01:00:00 13.2 19 Oeste 28 Oeste 0 967.3 -0.8 71
2020-03-26 00:00:00 14.3 17 Oeste 30 Oeste 0 967.5 -0.1 67
2020-03-25 23:00:00 14.1 21 Oeste 40 Oeste 0 967.7 0.2 68
2020-03-25 22:00:00 14.5 22 Oeste 36 Oeste 0 968.1 0.5 71
2020-03-25 21:00:00 15.5 16 Oeste 31 Oeste 0 967.6 0 59
2020-03-25 20:00:00 16.1 17 Oeste 28 Oeste 0 967.5 -0.4 57
2020-03-25 19:00:00 17.9 12 Oeste 25 Oeste 0 967.6 -0.8 46
2020-03-25 18:00:00 19 12 Oeste 26 Oeste 0 967.6 -1.6 48
2020-03-25 17:00:00 18.9 11 Oeste 23 Oeste 0 967.9 -2 50
2020-03-25 16:00:00 18.8 12 Oeste 22 Noroeste 0 968.4 -2.1 51
2020-03-25 15:00:00 17.7 8 Oeste 24 Noroeste 0 969.2 -1.7 56
2020-03-25 14:00:00 17 10 Noroeste 19 Oeste 0 969.9 -1.3 52
2020-03-25 13:00:00 16.5 7 Norte 16 Norte 0 970.5 -0.5 53
2020-03-25 12:00:00 15.4 5 Noroeste 15 Norte 0 970.9 0.3 58
2020-03-25 11:00:00 14 5 Nordeste 11 Nordeste 0 971.2 0.6 65
2020-03-25 10:00:00 12.1 3 Norte 14 Norte 0 971 0.8 70
2020-03-25 09:00:00 10.5 3 Noroeste 9 Norte 0 970.6 0.5 77
2020-03-25 08:00:00 8.4 5 Sudeste 8 Sudeste 0 970.6 0.5 84
2020-03-25 07:00:00 7.8 2 Sudoeste 5 Sudoeste 0 970.2 0.2 91
2020-03-25 06:00:00 8.5 3 Sur 4 Sur 0 970.1 -0.1 90
2020-03-25 05:00:00 9.2 0 Calma 6 Sudeste 0 970.1 0.1 85
2020-03-25 04:00:00 9.9 7 Sudeste 10 Sudeste 0 970 0.1 80
2020-03-25 03:00:00 9.5 2 Sur 21 Sudeste 0 970.2 0.5 82
2020-03-25 02:00:00 10.8 16 Sudeste 25 Sudeste 0 970 0.4 73
2020-03-25 01:00:00 10.8 13 Sudeste 30 Sudeste 0 969.9 0.6 74
2020-03-25 00:00:00 11.9 19 Sudeste 30 Sudeste 0 969.7 1.1 69
2020-03-24 23:00:00 11.1 10 Sudeste 15 Sudeste 0 969.6 1.5 73
2020-03-24 22:00:00 11.4 5 Sudeste 17 Sudeste 0 969.3 1.7 79
2020-03-24 21:00:00 12.7 7 Sudeste 17 Este 0 968.6 1.3 75
2020-03-24 20:00:00 14.6 11 Este 24 Este 0 968.1 0.9 66
2020-03-24 19:00:00 15.9 12 Este 32 Este 0 967.6 0.4 59
2020-03-24 18:00:00 16.3 15 Este 35 Este 0 967.3 0 57
2020-03-24 17:00:00 16 19 Este 38 Nordeste 0 967.2 -0.6 56
2020-03-24 16:00:00 16.6 22 Nordeste 47 Este 0 967.2 -0.9 55
2020-03-24 15:00:00 16.4 24 Nordeste 42 Este 0 967.3 -0.9 57
2020-03-24 14:00:00 16 23 Nordeste 45 Nordeste 0 967.8 -0.3 58
2020-03-24 13:00:00 15.2 25 Nordeste 48 Este 0 968.1 0.3 61
2020-03-24 12:00:00 15.1 26 Este 49 Nordeste 0 968.2 0.4 61
2020-03-24 11:00:00 14.4 27 Este 54 Este 0 968.1 0.6 64
2020-03-24 10:00:00 13 23 Nordeste 43 Nordeste 0 967.8 0.6 73
2020-03-24 09:00:00 12.4 19 Este 36 Este 0 967.8 0.7 75
2020-03-24 08:00:00 11.4 22 Este 34 Este 0 967.5 0.3 78
2020-03-24 07:00:00 10.7 11 Este 27 Este 0 967.2 -0.3 82
2020-03-24 06:00:00 10.6 14 Este 28 Este 0 967.1 -0.6 84
2020-03-24 05:00:00 10.7 9 Nordeste 18 Este 0 967.2 -0.5 85
2020-03-24 04:00:00 9.9 3 Sur 8 Este 0 967.5 -0.6 87
2020-03-24 03:00:00 9.8 2 Este 13 Sudeste 0 967.7 -0.4 85
2020-03-24 02:00:00 9.6 9 Sudeste 14 Sudeste 0 967.7 0 84
2020-03-24 01:00:00 9.5 9 Sudeste 14 Sudeste 0 968.1 0.7 83
2020-03-24 00:00:00 9.3 8 Sudeste 14 Este 0 968.1 0.8 86
2020-03-23 23:00:00 9.8 8 Sudeste 12 Este 0 967.7 0.8 82
2020-03-23 22:00:00 10.4 5 Sudeste 9 Sudeste 0 967.4 1 79
2020-03-23 21:00:00 11.2 3 Sur 6 Sudoeste 0 967.3 1.3 74
2020-03-23 20:00:00 12.8 5 Este 20 Nordeste 0 966.9 0.9 66
2020-03-23 19:00:00 15.1 9 Nordeste 27 Nordeste 0 966.4 -0.1 59
2020-03-23 18:00:00 16.1 14 Nordeste 35 Nordeste 0 966 -0.7 57
2020-03-23 17:00:00 16.3 15 Nordeste 34 Este 0 966 -1.6 51
2020-03-23 16:00:00 16.1 18 Nordeste 33 Nordeste 0 966.5 -1.7 54
2020-03-23 15:00:00 16.1 17 Este 33 Este 0 966.7 -1.7 56
2020-03-23 14:00:00 15.1 16 Nordeste 36 Nordeste 0 967.6 -0.8 62
2020-03-23 13:00:00 14.3 16 Este 30 Nordeste 0 968.2 -0.2 64
2020-03-23 12:00:00 14.3 13 Nordeste 28 Este 0 968.4 0.2 61
2020-03-23 11:00:00 13.6 18 Este 30 Este 0 968.4 0.6 68
2020-03-23 10:00:00 12.1 14 Este 20 Este 0 968.4 0.9 83
2020-03-23 09:00:00 10.6 5 Este 10 Este 0 968.2 1 89
2020-03-23 08:00:00 8.2 3 Sur 10 Este 0 967.8 1.1 99
2020-03-23 07:00:00 8.3 3 Sudeste 11 Nordeste 0 967.5 0.8 98
2020-03-23 06:00:00 8.8 4 Este 13 Este 0 967.2 0.2 97
2020-03-23 05:00:00 8.7 0 Calma 9 Noroeste 0 966.7 -0.2 99
2020-03-23 04:00:00 8.5 3 Norte 8 Norte 0 966.7 -0.4 99
2020-03-23 03:00:00 8 4 Oeste 7 Sur 0 967 -0.3 100
2020-03-23 02:00:00 7.4 4 Sudoeste 8 Sudoeste 0.2 966.9 -0.4 99
2020-03-23 01:00:00 8 2 Sur 8 Sudoeste 0 967.1 0.1 96
2020-03-23 00:00:00 7.8 0 Calma 7 Sudoeste 0 967.3 0.7 96
2020-03-22 23:00:00 8.7 5 Sudoeste 8 Sudoeste 0 967.3 1 93
2020-03-22 22:00:00 10.5 6 Sur 13 Sudeste 0.4 967 1.6 90
2020-03-22 21:00:00 10.8 7 Sur 18 Sudeste 0.4 966.6 1.7 89
2020-03-22 20:00:00 10.6 11 Sudeste 41 Este 0.2 966.3 1.7 86
2020-03-22 19:00:00 14.7 7 Noroeste 15 Noroeste 0 965.4 0.6 55
2020-03-22 18:00:00 15 11 Norte 17 Norte 0 964.9 -0.3 54
2020-03-22 17:00:00 15.4 7 Norte 18 Norte 0 964.6 -1.1 55
2020-03-22 16:00:00 14.8 6 Nordeste 19 Norte 0 964.8 -1.4 58
2020-03-22 15:00:00 14.8 12 Norte 22 Noroeste 0 965.2 -1.2 60
2020-03-22 14:00:00 14.5 6 Sur 17 Nordeste 0 965.7 -0.7 59
2020-03-22 13:00:00 12.9 6 Norte 17 Nordeste 0 966.2 0 70
2020-03-22 12:00:00 12.8 8 Este 18 Este 0 966.4 0.5 70
2020-03-22 11:00:00 11.4 8 Nordeste 13 Norte 0 966.4 0.9 79
2020-03-22 10:00:00 9.8 5 Norte 12 Nordeste 0 966.2 1.1 89
2020-03-22 09:00:00 7.8 0 Calma 4 Noroeste 0 965.9 1.1 97
2020-03-22 08:00:00 6.6 0 Calma 6 Sur 0 965.5 1.1 100
2020-03-22 07:00:00 6.4 5 Sur 8 Sudeste 0 965.1 0.6 98
2020-03-22 06:00:00 6.7 3 Sudeste 5 Sudeste 0 964.8 0.2 97
2020-03-22 05:00:00 7.6 4 Sudeste 15 Este 0 964.4 -0.4 95
2020-03-22 04:00:00 8.5 2 Este 8 Este 0 964.5 -0.5 98
2020-03-22 03:00:00 8.7 4 Este 12 Este 0 964.6 -0.7 96
2020-03-22 02:00:00 8.7 5 Nordeste 12 Norte 0 964.8 -0.5 97
2020-03-22 01:00:00 8.6 2 Noroeste 11 Nordeste 0 965 -0.1 98
2020-03-22 00:00:00 8.8 5 Norte 9 Norte 0.2 965.3 0.4 97
2020-03-21 23:00:00 8.8 3 Este 8 Sudeste 0 965.3 0.9 94
2020-03-21 22:00:00 8.8 2 Este 5 Nordeste 0.2 965.1 1.3 97
2020-03-21 21:00:00 8.9 3 Norte 8 Noroeste 0.2 964.9 1.8 96
2020-03-21 20:00:00 9.1 6 Norte 23 Sudoeste 0.2 964.4 1.3 95
2020-03-21 19:00:00 9.5 16 Sudoeste 25 Sudoeste 0.4 963.8 0.1 90
2020-03-21 18:00:00 12.4 9 Sudoeste 23 Este 0 963.1 -1.2 74
2020-03-21 17:00:00 13.4 10 Este 19 Nordeste 0 963.1 -2 58
2020-03-21 16:00:00 12.9 9 Este 22 Este 0 963.7 -1.9 65
2020-03-21 15:00:00 13.5 14 Este 24 Sudeste 0 964.3 -1.8 63
2020-03-21 14:00:00 12.6 10 Sudeste 19 Sudeste 0 965.1 -1.2 70
2020-03-21 13:00:00 12 9 Sudoeste 23 Sudeste 0 965.6 -0.4 74
2020-03-21 12:00:00 11.1 6 Sudoeste 17 Sur 0 966.1 0.6 75
2020-03-21 11:00:00 10 15 Sur 24 Sur 0 966.3 1.4 85
2020-03-21 10:00:00 8.6 10 Sur 21 Sur 0.4 966 1.2 96
2020-03-21 09:00:00 8 15 Sur 28 Sudeste 0 965.5 1.1 95
2020-03-21 08:00:00 7.8 13 Sudeste 23 Sudeste 0.2 964.9 -0.2 98
2020-03-21 07:00:00 8.3 7 Sudeste 17 Este 1.2 964.8 0 98
2020-03-21 06:00:00 8.7 11 Este 16 Este 6.8 964.4 -0.7 96
2020-03-21 05:00:00 9.4 0 Calma 10 Este 4.8 965.1 -0.5 100
2020-03-21 04:00:00 9.4 5 Este 6 Este 1 964.8 -1.1 100
2020-03-21 03:00:00 9.5 3 Norte 10 Norte 2.6 965.1 -0.8 100
2020-03-21 02:00:00 9.6 3 Norte 10 Sudoeste 2.6 965.6 0.4 100
2020-03-21 01:00:00 9.6 6 Oeste 25 Oeste 1.8 965.9 0.6 98
2020-03-21 00:00:00 9.5 17 Oeste 36 Sudoeste 4.4 965.9 0 97
2020-03-20 23:00:00 10.8 11 Oeste 34 Sudoeste 2.8 965.2 -1 96
2020-03-20 22:00:00 10.9 3 Nordeste 12 Norte 0 965.3 -1.1 100
2020-03-20 21:00:00 10.9 6 Norte 11 Norte 0 965.9 -0.3 100
2020-03-20 20:00:00 11.4 5 Noroeste 12 Noroeste 1 966.2 -0.2 99
2020-03-20 19:00:00 11.6 6 Noroeste 21 Sudoeste 4 966.4 -0.4 98
2020-03-20 18:00:00 12.3 3 Noroeste 14 Norte 1.2 966.2 -1.4 96
2020-03-20 17:00:00 12.7 9 Nordeste 17 Norte 0 966.4 -1.7 95
2020-03-20 16:00:00 13.2 3 Este 9 Sudoeste 0 966.8 -1.7 91
2020-03-20 15:00:00 12.9 4 Sur 21 Sudeste 0.4 967.6 -1.1 93
2020-03-20 14:00:00 12.7 13 Sudeste 24 Sur 0.8 968.1 -0.7 96
2020-03-20 13:00:00 12.5 16 Sur 23 Sudeste 0 968.5 -0.1 95
2020-03-20 12:00:00 13 10 Sudeste 17 Este 0 968.7 0.6 89
2020-03-20 11:00:00 12 7 Este 12 Este 0 968.8 1.4 95
2020-03-20 10:00:00 11.4 5 Nordeste 20 Este 0.6 968.6 1.4 96
2020-03-20 09:00:00 11.2 15 Sudeste 24 Sudeste 2.4 968.1 0.7 94
2020-03-20 08:00:00 10.8 9 Este 20 Este 3.4 967.4 -0.2 98
2020-03-20 07:00:00 10.7 12 Este 23 Sudeste 0.8 967.2 -0.8 93
2020-03-20 06:00:00 10.4 9 Sudeste 15 Sudeste 0 967.4 -1 87
2020-03-20 05:00:00 10.8 6 Sudeste 9 Sudeste 0 967.6 -0.8 86
2020-03-20 04:00:00 11.5 7 Sudeste 10 Sudeste 0.2 968 -0.7 85
2020-03-20 03:00:00 11.5 7 Sudeste 9 Sudeste 0 968.4 -0.6 85
2020-03-20 02:00:00 12.3 5 Este 11 Sudeste 0 968.4 -0.7 74
2020-03-20 01:00:00 12.3 9 Sudeste 13 Sudeste 0 968.7 -0.7 74
2020-03-20 00:00:00 12.4 9 Sudeste 14 Sudeste 0 969 -0.7 73
2020-03-19 23:00:00 12.7 8 Sudeste 12 Sudeste 0 969.1 -0.6 70
2020-03-19 22:00:00 13.6 5 Sudeste 15 Sudeste 0 969.4 -0.1 67
2020-03-19 21:00:00 13.6 6 Este 13 Este 0 969.7 0.4 68
2020-03-19 20:00:00 14.4 5 Este 14 Este 0 969.7 0.2 66
2020-03-19 19:00:00 15.5 6 Este 22 Este 0 969.5 -0.6 64
2020-03-19 18:00:00 16.6 10 Nordeste 25 Este 0 969.3 -1.4 58
2020-03-19 17:00:00 17.9 13 Nordeste 27 Este 0 969.5 -2.1 53
2020-03-19 16:00:00 18.9 13 Nordeste 28 Nordeste 0 970.1 -2.3 46
2020-03-19 15:00:00 18 15 Nordeste 29 Nordeste 0 970.7 -2.4 48
2020-03-19 14:00:00 18.2 14 Este 27 Este 0 971.6 -2.1 49
2020-03-19 13:00:00 16.7 9 Este 20 Sudeste 0 972.4 -1.4 54
2020-03-19 12:00:00 14.5 9 Este 17 Nordeste 0 973.1 -0.6 55
2020-03-19 11:00:00 13.3 5 Nordeste 10 Norte 0 973.7 0.1 60
2020-03-19 10:00:00 11.6 7 Este 15 Sudeste 0 973.8 0.2 66
2020-03-19 09:00:00 10.3 6 Sudeste 11 Sudeste 0 973.7 0.1 71
2020-03-19 08:00:00 7.9 2 Sudoeste 6 Sudeste 0 973.6 -0.1 71
2020-03-19 07:00:00 9.8 5 Este 13 Sudeste 0 973.6 -0.2 55
2020-03-19 06:00:00 11.1 8 Sudeste 14 Sudeste 0 973.6 -0.4 50
2020-03-19 05:00:00 11.4 12 Sudeste 21 Este 0 973.7 -0.4 50
2020-03-19 04:00:00 11.5 8 Sudeste 15 Sudeste 0 973.8 -0.5 61
2020-03-19 03:00:00 11.4 10 Sudeste 15 Sudeste 0 974 -0.6 67
2020-03-19 02:00:00 12.3 11 Sudeste 18 Sudeste 0 974.1 -0.8 68
2020-03-19 01:00:00 12.6 10 Sudeste 15 Este 0 974.3 -0.7 70
2020-03-19 00:00:00 13.2 10 Este 14 Este 0 974.6 -0.3 71
2020-03-18 23:00:00 13.4 10 Sudeste 15 Sudeste 0 974.9 0.3 71
2020-03-18 22:00:00 13.7 9 Sudeste 17 Este 0 975 0.5 72
2020-03-18 21:00:00 14.3 8 Sudeste 16 Este 0 974.9 0.6 70
2020-03-18 20:00:00 14.7 9 Sudeste 18 Este 0 974.6 0.1 67
2020-03-18 19:00:00 16 13 Este 21 Este 0 974.5 0.1 63
2020-03-18 18:00:00 16.4 5 Nordeste 23 Nordeste 0 974.3 -0.3 61
2020-03-18 17:00:00 17.4 11 Nordeste 29 Nordeste 0 974.5 -1 56
2020-03-18 16:00:00 18.5 15 Nordeste 28 Nordeste 0 974.4 -1.8 54
2020-03-18 15:00:00 18.9 14 Nordeste 30 Este 0 974.6 -2.1 51
2020-03-18 14:00:00 18.8 14 Nordeste 29 Nordeste 0 975.5 -1.5 50
2020-03-18 13:00:00 17.5 15 Este -- -- -- 976.2 -0.7 55
2020-03-18 12:00:00 16.1 15 Nordeste 29 Nordeste 0 976.7 0 61
2020-03-18 11:00:00 14.8 19 Este 39 Este 0 977 0.5 63
2020-03-18 10:00:00 13.4 23 Este 33 Este 0 976.9 0.5 68
2020-03-18 09:00:00 11.7 14 Este 26 Este 0 976.7 0.7 77
2020-03-18 08:00:00 9.7 6 Este 14 Este 0 976.5 0.7 84
2020-03-18 07:00:00 10 5 Sudeste 13 Este 0 976.4 0 82
2020-03-18 06:00:00 10.5 10 Este 21 Este 0 976 -0.1 85
2020-03-18 05:00:00 11.5 10 Este 21 Nordeste 0 975.8 -0.4 83
2020-03-18 04:00:00 11.9 7 Sudeste 20 Este 0 976.4 0.4 85
2020-03-18 03:00:00 12.6 10 Nordeste 22 Nordeste 0 976.1 -0.7 80
2020-03-18 02:00:00 11.7 7 Este 13 Este 0 976.2 -0.8 84
2020-03-18 01:00:00 11.6 8 Este 21 Este 0 976 -0.9 84
2020-03-18 00:00:00 11.6 6 Este 15 Nordeste 0 976.8 0.2 79
2020-03-17 23:00:00 10.8 4 Sudeste 8 Sur 0 977 1.1 76
2020-03-17 22:00:00 10.4 3 Sudoeste 10 Sudoeste 0 976.9 1.4 73
2020-03-17 21:00:00 10.4 4 Sudoeste 9 Sudoeste 0 976.6 1.4 75
2020-03-17 20:00:00 12.1 5 Sudoeste 12 Este 0 975.9 0.9 65
2020-03-17 19:00:00 16.1 8 Este 25 Sudeste 0 975.5 0.8 45
2020-03-17 18:00:00 16.8 17 Sudeste 31 Sudeste 0 975.2 0.4 38
2020-03-17 17:00:00 17.5 18 Sudeste 33 Sudeste 0 975 -0.1 37
2020-03-17 16:00:00 16.7 13 Este 32 Este 0 974.7 -0.6 39
2020-03-17 15:00:00 16.9 18 Sudeste 35 Sudeste 0 974.8 -0.4 37
2020-03-17 14:00:00 16.2 23 Este 41 Sudeste 0 975.1 -0.1 36
2020-03-17 13:00:00 15.5 25 Sudeste 35 Este 0 975.3 0.4 42
2020-03-17 12:00:00 14.2 21 Este 34 Este 0 975.2 0.7 47
2020-03-17 11:00:00 12.5 19 Este 34 Este 0 975.2 1.2 57
2020-03-17 10:00:00 10.2 21 Este 41 Este 0 974.9 1.5 66
2020-03-17 09:00:00 8 16 Este 24 Este 0 974.5 2.1 76
2020-03-17 08:00:00 5.6 12 Sudeste 21 Sudeste 0 974 2 87
2020-03-17 07:00:00 4.2 4 Sudeste 20 Este 0 973.4 1.4 89
2020-03-17 06:00:00 3.8 7 Sudeste 13 Este 0 972.4 0.5 93
2020-03-17 05:00:00 4.2 9 Este 16 Este 0 972 0.3 93
2020-03-17 04:00:00 4 8 Sudeste 14 Sudeste 0 972 0.2 94
2020-03-17 03:00:00 3.9 4 Sudeste 15 Nordeste 0 971.9 0.2 92
2020-03-17 02:00:00 4.8 9 Este 19 Nordeste 0 971.7 0.3 89
2020-03-17 01:00:00 4.7 4 Nordeste 12 Nordeste 0 971.8 1.1 91
2020-03-17 00:00:00 5.1 4 Norte 13 Nordeste 0 971.7 1.5 91
2020-03-16 23:00:00 5.5 2 Norte 10 Noroeste 0 971.4 2 90
2020-03-16 22:00:00 5.5 5 Noroeste 19 Norte 0 970.7 1.6 89
2020-03-16 21:00:00 6.1 10 Norte 36 Nordeste 0 970.2 1.2 86
2020-03-16 20:00:00 6.6 13 Norte 26 Norte 0 969.4 0.2 88
2020-03-16 19:00:00 6.7 15 Norte 41 Norte 0.6 969.1 0.3 88
2020-03-16 18:00:00 7.1 24 Norte 43 Norte 0.6 969 0 83
2020-03-16 17:00:00 7.6 24 Norte 51 Norte 0 969.2 0.1 77
2020-03-16 16:00:00 8.7 31 Noroeste 51 Noroeste 0 968.8 -0.3 67
2020-03-16 15:00:00 8.8 26 Norte 62 Noroeste 0 969 -0.1 66
2020-03-16 14:00:00 9.2 26 Noroeste 46 Noroeste 0 969.1 0 59
2020-03-16 13:00:00 9.3 21 Norte 50 Noroeste 0 969.1 0.2 57
2020-03-16 12:00:00 9.1 21 Noroeste 50 Noroeste 0 969.1 0.3 59
2020-03-16 11:00:00 7.9 25 Noroeste 47 Noroeste 0 969.1 0.6 64
2020-03-16 10:00:00 7.1 23 Noroeste 39 Noroeste 0 968.9 0.8 66
2020-03-16 09:00:00 5 17 Oeste 32 Noroeste 0 968.8 1 72
2020-03-16 08:00:00 4.3 18 Oeste 32 Oeste 0 968.5 0.6 75
2020-03-16 07:00:00 4.3 18 Oeste 43 Oeste 0 968.1 -0.1 74
2020-03-16 06:00:00 4.6 22 Oeste 42 Oeste 0 967.8 -0.9 72
2020-03-16 05:00:00 5.1 21 Oeste 34 Oeste 0 967.9 -0.9 68
2020-03-16 04:00:00 5.1 17 Oeste 34 Oeste 0 968.2 -0.7 69
2020-03-16 03:00:00 5.5 17 Oeste 34 Oeste 0 968.7 -0.2 68
2020-03-16 02:00:00 5.7 17 Oeste 32 Noroeste 0 968.8 0.1 69
2020-03-16 01:00:00 6.4 21 Noroeste 37 Noroeste 0 968.9 0.5 66
2020-03-16 00:00:00 7.2 19 Oeste 36 Oeste 0 968.9 1.2 69
2020-03-15 23:00:00 8.1 17 Oeste 34 Oeste 0 968.7 2.2 71
2020-03-15 22:00:00 8.9 19 Oeste 44 Oeste 0 968.4 2.1 72
2020-03-15 21:00:00 11.6 22 Oeste 40 Noroeste 0 967.7 1.4 71
2020-03-15 20:00:00 13.5 18 Oeste 39 Oeste 0 966.5 0 56
2020-03-15 19:00:00 15.3 23 Oeste 39 Oeste 0 966.3 -0.5 54
2020-03-15 18:00:00 17.2 21 Oeste 41 Oeste 0 966.3 -0.4 61
2020-03-15 17:00:00 17.9 22 Oeste 45 Oeste 0 966.5 -1 61
2020-03-15 16:00:00 18.6 24 Oeste 49 Sudoeste 0 966.8 -1.6 60
2020-03-15 15:00:00 20.8 14 Sudoeste 58 Oeste 0 966.7 -2.5 49
2020-03-15 14:00:00 20.5 17 Sudoeste 31 Oeste 0 967.5 -2.1 52
2020-03-15 13:00:00 20.7 13 Sudoeste 24 Sudoeste 0 968.4 -1.3 57
2020-03-15 12:00:00 19.2 10 Sudoeste 27 Sudoeste 0 969.2 -0.3 64
2020-03-15 11:00:00 18.3 13 Sur 27 Sur 0 969.6 0.4 67
2020-03-15 10:00:00 16.4 18 Sudoeste 26 Sudoeste 0 969.7 0.4 72
2020-03-15 09:00:00 11.9 0 Calma 2 Noroeste 0 969.5 0.3 93
2020-03-15 08:00:00 10.2 0 Calma 3 Sudeste 0 969.2 0 98
2020-03-15 07:00:00 9.8 2 Noroeste 6 Oeste 0 969.3 -0.4 96
2020-03-15 06:00:00 11 0 Calma 8 Sudoeste 0 969.2 -1 92
2020-03-15 05:00:00 12.8 5 Sur 14 Sudoeste 0 969.2 -1.5 85
2020-03-15 04:00:00 12.1 7 Sudoeste 12 Sudoeste 0 969.7 -1.3 89
2020-03-15 03:00:00 12.1 3 Sudoeste 6 Sur 0 970.2 -0.9 88
2020-03-15 02:00:00 11.9 4 Sudoeste 8 Sudoeste 0 970.7 -0.6 88
2020-03-15 01:00:00 11.5 2 Sudoeste 11 Oeste 0 971 -0.4 89
2020-03-15 00:00:00 13.1 5 Sudoeste 12 Sur 0 971.1 -0.3 81
2020-03-14 23:00:00 14 7 Sudoeste 10 Sudoeste 0 971.3 -0.1 78
2020-03-14 22:00:00 14.2 7 Sudoeste 10 Sudoeste 0 971.4 0.3 78
2020-03-14 21:00:00 14.5 9 Sudoeste 12 Sudoeste 0 971.4 0.3 78
2020-03-14 20:00:00 15.7 6 Sudoeste 10 Sudoeste 0 971.4 0.1 73
2020-03-14 19:00:00 20.5 4 Sur 8 Este 0 971.1 -0.6 61
2020-03-14 18:00:00 21.9 5 Este 10 Este 0 971.1 -1.2 51
2020-03-14 17:00:00 21.9 6 Este 12 Este 0 971.3 -1.8 52
2020-03-14 16:00:00 21.4 5 Este 14 Este 0 971.7 -1.9 55
2020-03-14 15:00:00 20.6 7 Este 14 Nordeste 0 972.3 -1.5 58
2020-03-14 14:00:00 19.7 5 Nordeste 12 Este 0 973.1 -1 64
2020-03-14 13:00:00 17.6 8 Este 15 Este 0 973.6 -0.4 75
2020-03-14 12:00:00 17.3 8 Este 12 Este 0 973.8 0.4 71
2020-03-14 11:00:00 15.6 5 Norte 10 Norte 0 974.1 1.1 77
2020-03-14 10:00:00 13 3 Nordeste 6 Este 0 974 1.6 80
2020-03-14 09:00:00 9.9 3 Noroeste 8 Noroeste 0 973.4 1.3 89
2020-03-14 08:00:00 9 3 Nordeste 9 Sudeste 0 973 1.2 89
2020-03-14 07:00:00 9.6 3 Sudoeste 6 Sur 0 972.4 0.4 89
2020-03-14 06:00:00 10.7 4 Sudoeste 11 Oeste 0 972.1 -0.1 84
2020-03-14 05:00:00 11.1 6 Oeste 11 Noroeste 0 971.8 -0.6 82
2020-03-14 04:00:00 11.4 6 Oeste 10 Noroeste 0 972 -0.6 81
2020-03-14 03:00:00 12.8 4 Sudoeste 12 Noroeste 0 972.2 -0.3 78
2020-03-14 02:00:00 13.6 9 Oeste 17 Noroeste 0 972.4 0.1 75
2020-03-14 01:00:00 13.9 6 Oeste 17 Oeste 0 972.6 0.6 77
2020-03-14 00:00:00 14.7 9 Oeste 15 Oeste 0 972.5 0.8 77
2020-03-13 23:00:00 14.8 8 Oeste 15 Oeste 0 972.3 1.1 79
2020-03-13 22:00:00 15.6 11 Oeste 24 Oeste 0 972 1.1 81
2020-03-13 21:00:00 16.2 12 Oeste 20 Sudoeste 0 971.7 1.1 81
2020-03-13 20:00:00 17 10 Oeste 16 Oeste 0 971.2 0.7 74
2020-03-13 19:00:00 18.9 9 Oeste 19 Noroeste 0 970.9 0.2 66
2020-03-13 18:00:00 20 11 Noroeste 22 Noroeste 0 970.6 -0.4 64
2020-03-13 17:00:00 20.3 11 Noroeste 19 Oeste 0 970.5 -1.1 63
2020-03-13 16:00:00 20.2 10 Noroeste 19 Noroeste 0 970.7 -1.5 62
2020-03-13 15:00:00 20 8 Noroeste 17 Oeste 0 971 -1.4 65
2020-03-13 14:00:00 18.6 11 Sudoeste 15 Sudoeste 0 971.6 -0.7 69
2020-03-13 13:00:00 18 9 Noroeste 16 Noroeste 0 972.2 -- 70
2020-03-13 12:00:00 15.6 10 Noroeste 20 Oeste 0 972.4 0.6 77
2020-03-13 11:00:00 15.9 8 Oeste 17 Sudoeste 0 972.3 1 75
2020-03-13 10:00:00 14.2 9 Sudoeste 16 Sudoeste 0 -- -- 83
2020-03-13 09:00:00 12.8 5 Sur 10 Sudeste 0 971.8 1.4 89
2020-03-13 08:00:00 10.5 5 Sudeste 19 Sudoeste 0 971.3 1 93
2020-03-13 07:00:00 11.7 4 Sudeste 17 Sudoeste 0 970.7 0.2 88
2020-03-13 06:00:00 13 4 Noroeste 14 Sudoeste 0 970.4 -0.3 87
2020-03-13 05:00:00 12.7 5 Este 12 Noroeste 0 970.3 -0.7 85
2020-03-13 04:00:00 13.5 3 Este 21 Sudoeste 0 970.5 -1 81
2020-03-13 03:00:00 16 15 Sudoeste 27 Sudoeste 0 970.7 -1 73
2020-03-13 02:00:00 16.7 20 Sudoeste 28 Sudoeste 0 971 -0.7 70
2020-03-13 01:00:00 16.5 16 Sudoeste 25 Sudoeste 0 971.5 -0.1 69
2020-03-13 00:00:00 17.5 20 Sudoeste 27 Sudoeste 0 971.7 0.3 64
2020-03-12 23:00:00 17.1 18 Sudoeste 26 Sudoeste 0 971.7 0.7 64
2020-03-12 22:00:00 17.7 19 Sudoeste 25 Sudoeste 0 971.6 0.7 60
2020-03-12 21:00:00 18.5 18 Sudoeste 28 Sudoeste 0 971.4 0.6 55
2020-03-12 20:00:00 19.2 16 Sudoeste 24 Sudoeste 0 971 0.2 47
2020-03-12 19:00:00 21 12 Sudoeste 22 Oeste 0 970.9 0 48
2020-03-12 18:00:00 23.2 17 Oeste 24 Sudoeste 0 970.8 -0.6 39
2020-03-12 17:00:00 24.4 9 Sur 23 Sur 0 970.8 -1.3 33
2020-03-12 16:00:00 24.4 11 Sur 20 Sur 0 970.9 -2.2 39
2020-03-12 15:00:00 23.8 13 Sudoeste 23 Sur 0 971.4 -1.9 41
2020-03-12 14:00:00 24.6 8 Sudoeste 18 Sudoeste 0 972.1 -1.6 37
2020-03-12 13:00:00 22.2 6 Noroeste 14 Norte 0 973.1 -0.5 56
2020-03-12 12:00:00 22.5 3 Nordeste 8 Este 0 973.3 -0.2 47
2020-03-12 11:00:00 19 3 Norte 5 Este 0 973.7 0.7 66
2020-03-12 10:00:00 15.9 3 Este 7 Noroeste 0 973.6 0.9 76
2020-03-12 09:00:00 12.5 4 Norte 8 Norte 0 973.5 1 85
2020-03-12 08:00:00 11.5 4 Sudoeste 6 Nordeste 0 973 0.3 81
2020-03-12 07:00:00 11.6 3 Noroeste 17 Sur 0 972.7 -0.5 87
2020-03-12 06:00:00 11.6 4 Noroeste 8 Noroeste 0 972.5 -1.3 88
2020-03-12 05:00:00 12.4 0 Calma -- -- 0 972.7 -1.3 86
2020-03-12 04:00:00 12.4 0 Calma -- -- 0 973.2 -1.2 84
2020-03-12 03:00:00 12.6 0 Calma 2 Oeste 0 973.8 -0.8 84
2020-03-12 02:00:00 12.8 4 Oeste 6 Oeste 0 974 -0.8 85
2020-03-12 01:00:00 13.5 4 Oeste 11 Noroeste 0 974.4 -0.4 79
2020-03-12 00:00:00 16.3 3 Sudoeste 14 Sudeste 0 974.6 -0.2 67
2020-03-11 23:00:00 18.7 11 Sudeste 14 Sudeste 0 974.8 -0.2 62
2020-03-11 22:00:00 18.2 9 Sudeste 11 Sudeste 0 974.8 -0.3 62
2020-03-11 21:00:00 18.2 8 Sur 10 Sudeste 0 974.8 -0.4 66
2020-03-11 20:00:00 18.7 6 Sudeste 9 Sudeste 0 975 -0.4 68
2020-03-11 19:00:00 21.1 3 Este 5 Sudeste 0 975.1 -0.7 59
2020-03-11 18:00:00 23.7 4 Este 6 Nordeste 0 975.2 -1.1 49
2020-03-11 17:00:00 24 2 Nordeste 13 Nordeste 0 975.4 -1.7 46
2020-03-11 16:00:00 23.7 8 Norte 12 Nordeste 0 975.8 -2 46
2020-03-11 15:00:00 24.4 5 Nordeste 12 Norte 0 976.3 -1.9 43
2020-03-11 14:00:00 23.4 4 Este 10 Este 0 977.1 -1.3 53
2020-03-11 13:00:00 21.7 3 Nordeste 11 Nordeste 0 977.8 -0.5 60
2020-03-11 12:00:00 19.1 3 Norte 8 Noroeste 0 978.2 0.3 67
2020-03-11 11:00:00 16.9 4 Norte 8 Norte 0 978.4 0.7 70
2020-03-11 10:00:00 14 0 Calma 5 Norte 0 978.3 0.7 77
2020-03-11 09:00:00 11 0 Calma 5 Norte 0 977.9 0.4 85
2020-03-11 08:00:00 10 0 Calma -- -- 0 977.7 0.3 89
2020-03-11 07:00:00 9.5 0 Calma -- -- 0 977.6 -0.1 91
2020-03-11 06:00:00 10.5 0 Calma -- -- 0 977.5 -0.8 86
2020-03-11 05:00:00 10.7 0 Calma -- -- 0 977.4 -1.4 85
2020-03-11 04:00:00 10.9 0 Calma 6 Sudoeste 0 977.7 -1.4 84
2020-03-11 03:00:00 12.3 3 Sur 5 Sudoeste 0 978.3 -1.2 78
2020-03-11 02:00:00 12.3 3 Sur 7 Sudoeste 0 978.8 -1 79
2020-03-11 01:00:00 12.8 2 Sudoeste 8 Sudoeste 0 979.1 -0.5 76
2020-03-11 00:00:00 13.7 8 Sudoeste 9 Sur 0 979.5 0.4 72
2020-03-10 23:00:00 13.8 5 Sudoeste 8 Sudoeste 0 979.8 0.8 72
2020-03-10 22:00:00 14.1 0 Calma 8 Sudoeste 0 979.6 0.6 70
2020-03-10 21:00:00 15.1 4 Sudoeste 10 Sudoeste 0 979.1 0.3 69
2020-03-10 20:00:00 16.2 9 Sudoeste 11 Sudoeste 0 979 0 66
2020-03-10 19:00:00 20.4 5 Sudoeste 8 Sudoeste 0 979 -0.3 54
2020-03-10 18:00:00 23.8 4 Sudeste 12 Norte 0 978.8 -1.2 38
2020-03-10 17:00:00 23.4 6 Norte 22 Norte 0 979 -1.8 40
2020-03-10 16:00:00 23.2 8 Noroeste 12 Noroeste 0 979.3 -2 36
2020-03-10 15:00:00 22.5 4 Oeste 15 Oeste 0 980 -1.7 35
2020-03-10 14:00:00 21.2 7 Noroeste 14 Oeste 0 980.8 -0.5 45
2020-03-10 13:00:00 19 3 Nordeste 9 Norte 0 981.3 -0.2 52
2020-03-10 12:00:00 16.3 4 Nordeste 9 Nordeste 0 981.7 1 59
2020-03-10 11:00:00 13.8 6 Norte 9 Noroeste 0 981.3 0.8 64
2020-03-10 10:00:00 10.7 3 Nordeste 10 Norte 0 981.5 1 72
2020-03-10 09:00:00 10.8 5 Noroeste 9 Noroeste 0 980.7 0.8 72
2020-03-10 08:00:00 9.3 6 Sur 10 Sudeste 0 980.5 0.6 69
2020-03-10 07:00:00 8 3 Sur 6 Este 0 980.5 0 74
2020-03-10 06:00:00 8.3 3 Este 5 Sur 0 979.9 -0.6 74
2020-03-10 05:00:00 9 2 Sur 8 Sudoeste 0 979.9 -0.9 68
2020-03-10 04:00:00 9.2 4 Sudoeste 7 Sudoeste 0 980.5 -0.1 67
2020-03-10 03:00:00 10.2 4 Sudoeste 6 Oeste 0 980.5 -0.2 61
2020-03-10 02:00:00 11.1 4 Sudoeste 10 Noroeste 0 980.8 0.2 56
2020-03-10 01:00:00 11 8 Oeste 12 Oeste 0 980.6 0.5 56
2020-03-10 00:00:00 11.3 7 Oeste 10 Oeste 0 980.7 0.8 56
2020-03-09 23:00:00 12.5 6 Oeste 17 Oeste 0 980.6 1.3 53
2020-03-09 22:00:00 13.9 8 Oeste 18 Noroeste 0 980.1 0.7 44
2020-03-09 21:00:00 14.4 5 Noroeste 19 Noroeste 0 979.9 0.9 45
2020-03-09 20:00:00 15.6 6 Oeste 21 Noroeste 0 979.3 0 39
2020-03-09 19:00:00 17.6 9 Noroeste 31 Noroeste 0 979.4 -0.4 34
2020-03-09 18:00:00 18.7 13 Noroeste 32 Norte 0 979 -1.2 35
2020-03-09 17:00:00 19.1 14 Noroeste 32 Noroeste 0 979.3 -1.6 33
2020-03-09 16:00:00 18.7 17 Noroeste 35 Noroeste 0 979.8 -1.7 33
2020-03-09 15:00:00 17.6 19 Noroeste 33 Noroeste 0 980.2 -1.7 40
2020-03-09 14:00:00 16.3 20 Noroeste 33 Noroeste 0 980.9 -1.1 43
2020-03-09 13:00:00 15.3 17 Noroeste 35 Norte 0 981.5 0 48
2020-03-09 12:00:00 13.4 18 Noroeste 32 Noroeste 0 981.9 0.7 57
2020-03-09 11:00:00 11.6 17 Noroeste 27 Noroeste 0 982 1.2 67
2020-03-09 10:00:00 10.4 12 Noroeste 20 Noroeste 0 981.5 0.9 75
2020-03-09 09:00:00 8.7 8 Noroeste 14 Noroeste 0 981.2 0.5 81
2020-03-09 08:00:00 7.3 8 Oeste 14 Oeste 0 980.8 0.4 87
2020-03-09 07:00:00 7.3 7 Noroeste 14 Oeste 0 980.6 0 85
2020-03-09 06:00:00 6.8 6 Oeste 11 Oeste 0 980.7 -0.4 87
2020-03-09 05:00:00 7.2 8 Oeste 10 Oeste 0 980.4 -1 88
2020-03-09 04:00:00 8.1 5 Oeste 14 Noroeste 0 980.6 -0.8 87
2020-03-09 03:00:00 9.2 7 Oeste 12 Oeste 0 981.1 0 85
2020-03-09 02:00:00 9.8 7 Oeste 14 Oeste 0 981.4 0.1 86
2020-03-09 01:00:00 10.4 6 Oeste 15 Noroeste 0 981.4 0.6 87
2020-03-09 00:00:00 11.2 7 Oeste 19 Oeste 0 981.1 0.4 85